createdAt,value
2022-11-07T00:00:01.093Z,6.5
2022-11-07T00:05:01.026Z,6.4
2022-11-07T00:10:01.012Z,6.3
2022-11-07T00:15:00.991Z,6.3
2022-11-07T00:20:01.119Z,6.2
2022-11-07T00:25:00.988Z,6.2
2022-11-07T00:30:01.155Z,6.1
2022-11-07T00:35:01.066Z,6.1
2022-11-07T00:40:01.003Z,6.2
2022-11-07T00:45:00.959Z,6.3
2022-11-07T00:50:01.099Z,6.3
2022-11-07T00:55:01.031Z,6.3
2022-11-07T01:00:01.105Z,6.3
2022-11-07T01:05:01.090Z,6.3
2022-11-07T01:10:00.992Z,6.4
2022-11-07T01:15:00.966Z,6.4
2022-11-07T01:20:01.011Z,6.4
2022-11-07T01:25:00.995Z,6.4
2022-11-07T01:30:01.021Z,6.4
2022-11-07T01:35:00.991Z,6.4
2022-11-07T01:40:00.955Z,6.4
2022-11-07T01:45:00.998Z,6.4
2022-11-07T01:50:01.014Z,6.5
2022-11-07T01:55:00.962Z,6.4
2022-11-07T02:00:01.087Z,6.5
2022-11-07T02:05:00.980Z,6.4
2022-11-07T02:10:00.995Z,6.4
2022-11-07T02:15:00.970Z,6.4
2022-11-07T02:20:00.987Z,6.3
2022-11-07T02:25:00.974Z,6.3
2022-11-07T02:30:01.085Z,6.2
2022-11-07T02:35:00.980Z,6.2
2022-11-07T02:40:01.010Z,6.2
2022-11-07T02:45:01.032Z,6.3
2022-11-07T02:50:01.081Z,6.5
2022-11-07T02:55:01.029Z,6.7
2022-11-07T03:00:01.115Z,6.8
2022-11-07T03:05:00.966Z,6.9
2022-11-07T03:10:01.005Z,6.8
2022-11-07T03:15:01.084Z,6.6
2022-11-07T03:20:01.030Z,6.6
2022-11-07T03:25:00.940Z,6.5
2022-11-07T03:30:00.959Z,6.4
2022-11-07T03:35:00.986Z,6.4
2022-11-07T03:40:00.951Z,6.3
2022-11-07T03:45:00.985Z,6.2
2022-11-07T03:50:01.012Z,6.1
2022-11-07T03:55:01.033Z,6.1
2022-11-07T04:00:01.128Z,6
2022-11-07T04:05:00.962Z,5.9
2022-11-07T04:10:00.948Z,5.9
2022-11-07T04:15:00.983Z,5.9
2022-11-07T04:20:00.986Z,5.8
2022-11-07T04:25:01.013Z,5.8
2022-11-07T04:30:00.980Z,5.8
2022-11-07T04:35:00.948Z,5.8
2022-11-07T04:40:00.929Z,5.8
2022-11-07T04:45:00.990Z,5.8
2022-11-07T04:50:00.982Z,5.7
2022-11-07T04:55:01.013Z,5.7
2022-11-07T05:00:01.122Z,5.7
2022-11-07T05:05:01.027Z,5.7
2022-11-07T05:10:00.955Z,5.6
2022-11-07T05:15:01.037Z,5.6
2022-11-07T05:20:01.009Z,5.7
2022-11-07T05:25:01.006Z,5.7
2022-11-07T05:30:01.001Z,5.7
2022-11-07T05:35:01.052Z,5.6
2022-11-07T05:40:01.022Z,5.6
2022-11-07T05:45:01.068Z,5.6
2022-11-07T05:50:01.101Z,5.6
2022-11-07T05:55:00.985Z,5.6
2022-11-07T06:00:01.118Z,5.6
2022-11-07T06:05:00.962Z,5.5
2022-11-07T06:10:01.003Z,5.5
2022-11-07T06:15:00.956Z,5.5
2022-11-07T06:20:01.037Z,5.5
2022-11-07T06:25:00.926Z,5.5
2022-11-07T06:30:00.964Z,5.5
2022-11-07T06:35:00.963Z,5.5
2022-11-07T06:40:00.945Z,5.5
2022-11-07T06:45:00.968Z,5.6
2022-11-07T06:50:01.022Z,5.6
2022-11-07T06:55:00.958Z,5.7
2022-11-07T07:00:01.624Z,5.7
2022-11-07T07:05:00.987Z,5.7
2022-11-07T07:10:01.047Z,5.7
2022-11-07T07:15:01.084Z,5.7
2022-11-07T07:20:01.075Z,5.8
2022-11-07T07:25:00.952Z,6
2022-11-07T07:30:01.031Z,6
2022-11-07T07:35:01.005Z,6.1
2022-11-07T07:40:00.976Z,6.3
2022-11-07T07:45:01.107Z,6.5
2022-11-07T07:50:00.930Z,6.8
2022-11-07T07:55:00.963Z,7.1
2022-11-07T08:00:01.209Z,7.2
2022-11-07T08:05:01.005Z,7.5
2022-11-07T08:10:02.285Z,7.6
2022-11-07T08:15:01.012Z,7.6
2022-11-07T08:20:01.016Z,7.4
2022-11-07T08:25:01.105Z,7.5
2022-11-07T08:30:01.082Z,7.8
2022-11-07T08:35:00.953Z,7.8
2022-11-07T08:40:00.954Z,7.9
2022-11-07T08:45:01.026Z,7.9
2022-11-07T08:50:01.056Z,7.8
2022-11-07T08:55:01.040Z,7.6
2022-11-07T09:00:01.090Z,7.7
2022-11-07T09:05:01.073Z,7.6
2022-11-07T09:10:01.010Z,7.5
2022-11-07T09:15:01.048Z,7.6
2022-11-07T09:20:01.030Z,7.5
2022-11-07T09:25:01.075Z,7.6
2022-11-07T09:30:01.201Z,7.6
2022-11-07T09:35:04.613Z,7.6
2022-11-07T09:40:00.982Z,7.7
2022-11-07T09:45:00.980Z,7.8
2022-11-07T09:50:01.052Z,7.6
2022-11-07T09:55:00.978Z,7.5
2022-11-07T10:00:01.057Z,7.7
2022-11-07T10:05:01.124Z,7.6
2022-11-07T10:10:00.981Z,7.7
2022-11-07T10:15:00.996Z,7.7
2022-11-07T10:20:01.039Z,7.6
2022-11-07T10:25:00.986Z,7.6
2022-11-07T10:30:00.989Z,7.6
2022-11-07T10:35:00.995Z,7.7
2022-11-07T10:40:00.968Z,7.6
2022-11-07T10:45:01.000Z,7.7
2022-11-07T10:50:01.105Z,7.6
2022-11-07T10:55:01.022Z,7.6
2022-11-07T11:00:01.084Z,7.8
2022-11-07T11:05:00.956Z,7.6
2022-11-07T11:10:00.952Z,7.6
2022-11-07T11:15:01.030Z,7.7
2022-11-07T11:20:01.061Z,7.5
2022-11-07T11:25:01.047Z,7.7
2022-11-07T11:30:01.145Z,7.7
2022-11-07T11:35:01.020Z,7.7
2022-11-07T11:40:00.991Z,7.8
2022-11-07T11:45:00.990Z,7.8
2022-11-07T11:50:01.042Z,7.7
2022-11-07T11:55:01.004Z,7.7
2022-11-07T12:00:01.127Z,7.7
2022-11-07T12:05:01.036Z,7.7
2022-11-07T12:10:01.034Z,7.9
2022-11-07T12:15:01.095Z,8.1
2022-11-07T12:20:01.071Z,7.7
2022-11-07T12:25:01.032Z,7.8
2022-11-07T12:30:01.047Z,7.7
2022-11-07T12:35:01.033Z,7.7
2022-11-07T12:40:01.046Z,7.7
2022-11-07T12:45:01.129Z,7.7
2022-11-07T12:50:00.989Z,7.6
2022-11-07T12:55:00.978Z,7.7
2022-11-07T13:00:01.181Z,7.8
2022-11-07T13:05:01.049Z,7.7
2022-11-07T13:10:01.036Z,7.8
2022-11-07T13:15:01.058Z,7.7
2022-11-07T13:20:01.079Z,7.7
2022-11-07T13:25:04.546Z,7.7
2022-11-07T13:30:01.116Z,7.8
2022-11-07T13:35:01.078Z,7.9
2022-11-07T13:40:00.966Z,8
2022-11-07T13:45:01.031Z,7.8
2022-11-07T13:50:01.010Z,7.7
2022-11-07T13:55:01.091Z,7.7
2022-11-07T14:00:01.156Z,7.8
2022-11-07T14:05:16.158Z,7.8
2022-11-07T14:10:01.072Z,7.8
2022-11-07T14:15:01.182Z,7.8
2022-11-07T14:20:01.082Z,7.8
2022-11-07T14:25:01.014Z,7.7
2022-11-07T14:30:01.061Z,7.7
2022-11-07T14:35:01.053Z,7.6
2022-11-07T14:40:01.027Z,7.7
2022-11-07T14:45:01.053Z,7.6
2022-11-07T14:50:01.035Z,7.6
2022-11-07T14:55:01.043Z,7.9
2022-11-07T15:00:01.077Z,8.1
2022-11-07T15:05:06.660Z,8.1
2022-11-07T15:10:01.157Z,8.1
2022-11-07T15:15:01.042Z,8.1
2022-11-07T15:20:01.162Z,8.2
2022-11-07T15:25:01.098Z,8.3
2022-11-07T15:30:01.082Z,8.3
2022-11-07T15:35:17.247Z,8.2
2022-11-07T15:40:01.050Z,8.2
2022-11-07T15:45:00.980Z,8.1
2022-11-07T15:50:01.057Z,8.2
2022-11-07T16:00:01.048Z,8
2022-11-07T16:05:01.322Z,7.9
2022-11-07T16:10:00.985Z,7.9
2022-11-07T16:20:01.624Z,7.8
2022-11-07T16:25:01.055Z,7.7
2022-11-07T16:30:01.060Z,7.7
2022-11-07T16:35:01.029Z,7.7
2022-11-07T16:40:00.966Z,7.6
2022-11-07T16:45:01.011Z,7.6
2022-11-07T16:50:01.096Z,7.6
2022-11-07T16:55:00.998Z,7.5
2022-11-07T17:00:01.146Z,7.6
2022-11-07T17:05:01.051Z,7.5
2022-11-07T17:10:01.016Z,7.5
2022-11-07T17:15:01.003Z,7.6
2022-11-07T17:20:01.020Z,7.5
2022-11-07T17:25:00.986Z,7.5
2022-11-07T17:30:03.289Z,7.4
2022-11-07T17:35:25.929Z,7.5
2022-11-07T17:40:00.976Z,7.4
2022-11-07T17:45:00.994Z,7.3
2022-11-07T17:50:01.031Z,7.2
2022-11-07T17:55:01.055Z,7.2
2022-11-07T18:00:01.008Z,7.1
2022-11-07T18:05:01.000Z,7.1
2022-11-07T18:10:01.001Z,7
2022-11-07T18:15:01.037Z,7
2022-11-07T18:20:01.045Z,6.9
2022-11-07T18:25:00.950Z,6.8
2022-11-07T18:30:02.004Z,6.8
2022-11-07T18:35:00.984Z,6.8
2022-11-07T18:40:00.979Z,6.7
2022-11-07T18:45:01.311Z,6.7
2022-11-07T18:50:01.046Z,6.6
2022-11-07T18:55:00.992Z,6.6
2022-11-07T19:00:01.163Z,6.6
2022-11-07T19:05:00.984Z,6.6
2022-11-07T19:10:00.963Z,6.6
2022-11-07T19:15:00.956Z,6.6
2022-11-07T19:20:01.031Z,6.5
2022-11-07T19:25:00.976Z,6.5
2022-11-07T19:30:01.131Z,6.5
2022-11-07T19:35:01.010Z,6.4
2022-11-07T19:40:01.000Z,6.4
2022-11-07T19:45:00.966Z,6.3
2022-11-07T19:50:00.970Z,6.3
2022-11-07T19:55:01.026Z,6.2
2022-11-07T20:00:01.113Z,6.2
2022-11-07T20:05:00.948Z,6.1
2022-11-07T20:10:01.009Z,6.1
2022-11-07T20:15:01.007Z,6.1
2022-11-07T20:20:04.501Z,6.1
2022-11-07T20:25:00.960Z,6.1
2022-11-07T20:30:01.060Z,6
2022-11-07T20:35:00.953Z,6
2022-11-07T20:40:00.989Z,6
2022-11-07T20:45:01.005Z,6
2022-11-07T20:50:01.043Z,5.9
2022-11-07T20:55:01.063Z,5.9
2022-11-07T21:00:01.083Z,5.8
2022-11-07T21:05:17.023Z,5.8
2022-11-07T21:10:00.972Z,5.8
2022-11-07T21:15:01.033Z,5.7
2022-11-07T21:20:01.120Z,5.7
2022-11-07T21:25:01.047Z,5.7
2022-11-07T21:30:01.097Z,5.7
2022-11-07T21:35:01.092Z,5.6
2022-11-07T21:40:01.005Z,5.6
2022-11-07T21:45:01.041Z,5.6
2022-11-07T21:50:06.392Z,5.6
2022-11-07T21:55:01.051Z,5.6
2022-11-07T22:00:01.049Z,5.5
2022-11-07T22:05:01.147Z,5.5
2022-11-07T22:10:01.132Z,5.5
2022-11-07T22:15:00.972Z,5.5
2022-11-07T22:20:01.193Z,5.5
2022-11-07T22:25:01.039Z,5.4
2022-11-07T22:30:01.184Z,5.4
2022-11-07T22:35:04.961Z,5.4
2022-11-07T22:40:00.984Z,5.4
2022-11-07T22:45:01.054Z,5.4
2022-11-07T22:50:01.028Z,5.4
2022-11-07T22:55:01.009Z,5.4
2022-11-07T23:00:12.682Z,5.3
2022-11-07T23:05:01.038Z,5.3
2022-11-07T23:10:01.196Z,5.3
2022-11-07T23:15:01.063Z,5.3
2022-11-07T23:20:01.070Z,5.3
2022-11-07T23:25:01.141Z,5.3
2022-11-07T23:30:01.165Z,5.3
2022-11-07T23:35:00.955Z,5.3
2022-11-07T23:40:00.964Z,5.3
2022-11-07T23:45:00.972Z,5.3
2022-11-07T23:50:01.028Z,5.3
2022-11-07T23:55:00.990Z,5.3
